sensor_id;sensor_type;location;lat;lon;timestamp;pressure;altitude;pressure_sealevel;temperature;humidity
36798;BME280;22748;8.426;99.512;2023-03-14T00:00:36;100731.72;;;27.91;58.16
36798;BME280;22748;8.426;99.512;2023-03-14T00:03:19;100734.53;;;27.83;58.27
36798;BME280;22748;8.426;99.512;2023-03-14T00:05:50;100740.50;;;27.78;58.32
36798;BME280;22748;8.426;99.512;2023-03-14T00:08:22;100739.69;;;27.78;58.81
36798;BME280;22748;8.426;99.512;2023-03-14T00:10:54;100743.00;;;27.80;58.99
36798;BME280;22748;8.426;99.512;2023-03-14T00:13:26;100742.19;;;27.79;58.89
36798;BME280;22748;8.426;99.512;2023-03-14T00:16:02;100739.69;;;27.78;58.87
36798;BME280;22748;8.426;99.512;2023-03-14T00:18:42;100752.47;;;27.76;58.63
36798;BME280;22748;8.426;99.512;2023-03-14T00:21:15;100746.09;;;27.77;59.02
36798;BME280;22748;8.426;99.512;2023-03-14T00:23:50;100760.53;;;27.76;58.63
36798;BME280;22748;8.426;99.512;2023-03-14T00:26:32;100761.56;;;27.75;59.12
36798;BME280;22748;8.426;99.512;2023-03-14T00:29:09;100762.56;;;27.74;59.06
36798;BME280;22748;8.426;99.512;2023-03-14T00:31:39;100770.59;;;27.67;58.91
36798;BME280;22748;8.426;99.512;2023-03-14T00:34:14;100766.84;;;27.61;59.37
36798;BME280;22748;8.426;99.512;2023-03-14T00:36:46;100776.72;;;27.61;59.52
36798;BME280;22748;8.426;99.512;2023-03-14T00:39:28;100788.31;;;27.61;59.49
36798;BME280;22748;8.426;99.512;2023-03-14T00:41:59;100787.09;;;27.64;59.73
36798;BME280;22748;8.426;99.512;2023-03-14T00:44:30;100788.53;;;27.66;60.06
36798;BME280;22748;8.426;99.512;2023-03-14T00:47:01;100788.13;;;27.69;59.64
36798;BME280;22748;8.426;99.512;2023-03-14T00:49:34;100789.41;;;27.74;59.64
36798;BME280;22748;8.426;99.512;2023-03-14T00:52:04;100804.50;;;27.75;59.75
36798;BME280;22748;8.426;99.512;2023-03-14T00:54:34;100810.28;;;27.78;59.89
36798;BME280;22748;8.426;99.512;2023-03-14T00:57:04;100814.44;;;27.81;59.57
36798;BME280;22748;8.426;99.512;2023-03-14T00:59:35;100814.44;;;27.81;59.72
36798;BME280;22748;8.426;99.512;2023-03-14T01:02:05;100811.53;;;27.82;59.96
36798;BME280;22748;8.426;99.512;2023-03-14T01:04:38;100814.44;;;27.81;59.79
36798;BME280;22748;8.426;99.512;2023-03-14T01:07:11;100819.41;;;27.84;60.19
36798;BME280;22748;8.426;99.512;2023-03-14T01:09:41;100817.53;;;27.84;59.76
36798;BME280;22748;8.426;99.512;2023-03-14T01:12:12;100821.72;;;27.87;60.20
36798;BME280;22748;8.426;99.512;2023-03-14T01:14:44;100828.75;;;27.88;59.93
36798;BME280;22748;8.426;99.512;2023-03-14T01:17:15;100822.34;;;27.89;60.20
36798;BME280;22748;8.426;99.512;2023-03-14T01:19:46;100816.97;;;27.89;60.14
36798;BME280;22748;8.426;99.512;2023-03-14T01:22:17;100825.28;;;27.94;60.57
36798;BME280;22748;8.426;99.512;2023-03-14T01:24:49;100824.03;;;27.90;60.89
36798;BME280;22748;8.426;99.512;2023-03-14T01:27:21;100823.56;;;27.86;61.25
36798;BME280;22748;8.426;99.512;2023-03-14T01:29:52;100819.88;;;27.87;60.98
36798;BME280;22748;8.426;99.512;2023-03-14T01:32:22;100821.53;;;27.88;60.78
36798;BME280;22748;8.426;99.512;2023-03-14T01:34:56;100829.81;;;27.94;61.12
36798;BME280;22748;8.426;99.512;2023-03-14T01:37:27;100832.31;;;27.95;61.77
36798;BME280;22748;8.426;99.512;2023-03-14T01:39:58;100827.34;;;27.92;62.00
36798;BME280;22748;8.426;99.512;2023-03-14T01:42:29;100823.25;;;27.96;61.83
36798;BME280;22748;8.426;99.512;2023-03-14T01:44:59;100824.28;;;28.02;61.11
36798;BME280;22748;8.426;99.512;2023-03-14T01:47:30;100834.03;;;28.09;60.97
36798;BME280;22748;8.426;99.512;2023-03-14T01:50:05;100828.25;;;28.13;61.07
36798;BME280;22748;8.426;99.512;2023-03-14T01:52:41;100823.34;;;28.16;61.25
36798;BME280;22748;8.426;99.512;2023-03-14T01:55:14;100833.84;;;28.18;61.40
36798;BME280;22748;8.426;99.512;2023-03-14T01:57:49;100837.38;;;28.18;60.62
36798;BME280;22748;8.426;99.512;2023-03-14T02:00:22;100837.81;;;28.22;60.61
36798;BME280;22748;8.426;99.512;2023-03-14T02:02:56;100839.47;;;28.23;61.00
36798;BME280;22748;8.426;99.512;2023-03-14T02:05:34;100847.75;;;28.28;60.48
36798;BME280;22748;8.426;99.512;2023-03-14T02:08:09;100853.75;;;28.30;58.96
36798;BME280;22748;8.426;99.512;2023-03-14T02:10:41;100849.22;;;28.37;58.96
36798;BME280;22748;8.426;99.512;2023-03-14T02:13:13;100862.28;;;28.40;58.15
36798;BME280;22748;8.426;99.512;2023-03-14T02:15:45;100859.81;;;28.45;57.41
36798;BME280;22748;8.426;99.512;2023-03-14T02:18:17;100855.31;;;28.52;57.04
36798;BME280;22748;8.426;99.512;2023-03-14T02:20:53;100858.00;;;28.52;57.16
36798;BME280;22748;8.426;99.512;2023-03-14T02:23:34;100860.75;;;28.59;57.13
36798;BME280;22748;8.426;99.512;2023-03-14T02:26:11;100850.81;;;28.66;57.30
36798;BME280;22748;8.426;99.512;2023-03-14T02:28:47;100860.31;;;28.62;57.21
36798;BME280;22748;8.426;99.512;2023-03-14T02:31:30;100852.91;;;28.71;57.26
36798;BME280;22748;8.426;99.512;2023-03-14T02:34:01;100859.13;;;28.78;56.93
36798;BME280;22748;8.426;99.512;2023-03-14T02:36:33;100860.38;;;28.82;57.24
36798;BME280;22748;8.426;99.512;2023-03-14T02:39:10;100864.72;;;28.83;56.71
36798;BME280;22748;8.426;99.512;2023-03-14T02:41:44;100863.50;;;28.92;56.88
36798;BME280;22748;8.426;99.512;2023-03-14T02:44:19;100861.66;;;29.00;56.59
36798;BME280;22748;8.426;99.512;2023-03-14T02:46:51;100863.31;;;29.07;56.22
36798;BME280;22748;8.426;99.512;2023-03-14T02:49:22;100856.31;;;29.13;55.94
36798;BME280;22748;8.426;99.512;2023-03-14T02:51:51;100860.06;;;29.19;56.45
36798;BME280;22748;8.426;99.512;2023-03-14T02:57:52;100858.38;;;29.24;55.29
36798;BME280;22748;8.426;99.512;2023-03-14T03:00:29;100858.00;;;29.27;55.51
36798;BME280;22748;8.426;99.512;2023-03-14T03:03:09;100856.56;;;29.31;55.00
36798;BME280;22748;8.426;99.512;2023-03-14T03:05:43;100858.19;;;29.32;55.26
36798;BME280;22748;8.426;99.512;2023-03-14T03:08:14;100854.06;;;29.37;54.95
36798;BME280;22748;8.426;99.512;2023-03-14T03:10:44;100857.56;;;29.44;54.45
36798;BME280;22748;8.426;99.512;2023-03-14T03:13:15;100852.59;;;29.54;53.97
36798;BME280;22748;8.426;99.512;2023-03-14T03:15:48;100838.94;;;29.62;54.17
36798;BME280;22748;8.426;99.512;2023-03-14T03:18:19;100844.94;;;29.64;53.53
36798;BME280;22748;8.426;99.512;2023-03-14T03:20:50;100838.97;;;29.69;52.72
36798;BME280;22748;8.426;99.512;2023-03-14T03:23:47;100836.06;;;29.70;52.17
36798;BME280;22748;8.426;99.512;2023-03-14T03:26:44;100839.13;;;29.67;52.52
36798;BME280;22748;8.426;99.512;2023-03-14T03:29:15;100841.81;;;29.67;51.68
36798;BME280;22748;8.426;99.512;2023-03-14T03:31:49;100834.41;;;29.69;51.45
36798;BME280;22748;8.426;99.512;2023-03-14T03:34:19;100832.09;;;29.80;51.38
36798;BME280;22748;8.426;99.512;2023-03-14T03:36:49;100823.59;;;29.89;51.18
36798;BME280;22748;8.426;99.512;2023-03-14T03:39:22;100830.00;;;29.95;50.90
36798;BME280;22748;8.426;99.512;2023-03-14T03:41:54;100824.41;;;29.97;51.51
36798;BME280;22748;8.426;99.512;2023-03-14T03:44:25;100819.38;;;30.07;50.73
36798;BME280;22748;8.426;99.512;2023-03-14T03:46:58;100814.78;;;30.21;50.50
36798;BME280;22748;8.426;99.512;2023-03-14T03:49:30;100807.75;;;30.20;50.15
36798;BME280;22748;8.426;99.512;2023-03-14T03:52:01;100810.22;;;30.28;49.96
36798;BME280;22748;8.426;99.512;2023-03-14T03:54:32;100799.00;;;30.31;50.13
36798;BME280;22748;8.426;99.512;2023-03-14T03:57:02;100791.97;;;30.30;50.19
36798;BME280;22748;8.426;99.512;2023-03-14T03:59:33;100792.75;;;30.37;49.22
36798;BME280;22748;8.426;99.512;2023-03-14T04:02:06;100798.59;;;30.34;49.32
36798;BME280;22748;8.426;99.512;2023-03-14T04:04:37;100785.97;;;30.28;49.35
36798;BME280;22748;8.426;99.512;2023-03-14T04:07:07;100781.38;;;30.35;49.46
36798;BME280;22748;8.426;99.512;2023-03-14T04:09:39;100780.69;;;30.46;49.09
36798;BME280;22748;8.426;99.512;2023-03-14T04:12:10;100772.00;;;30.44;48.77
36798;BME280;22748;8.426;99.512;2023-03-14T04:14:41;100767.00;;;30.48;48.78
36798;BME280;22748;8.426;99.512;2023-03-14T04:17:15;100757.00;;;30.55;48.87
36798;BME280;22748;8.426;99.512;2023-03-14T04:19:46;100754.06;;;30.63;49.21
36798;BME280;22748;8.426;99.512;2023-03-14T04:22:21;100747.59;;;30.71;49.68
36798;BME280;22748;8.426;99.512;2023-03-14T04:24:52;100744.44;;;30.74;48.50
36798;BME280;22748;8.426;99.512;2023-03-14T04:27:23;100737.41;;;30.73;49.07
36798;BME280;22748;8.426;99.512;2023-03-14T04:29:54;100729.47;;;30.78;48.65
36798;BME280;22748;8.426;99.512;2023-03-14T04:32:27;100724.84;;;30.85;47.86
36798;BME280;22748;8.426;99.512;2023-03-14T04:34:57;100727.16;;;30.88;47.57
36798;BME280;22748;8.426;99.512;2023-03-14T04:37:28;100722.38;;;30.90;47.50
36798;BME280;22748;8.426;99.512;2023-03-14T04:39:58;100711.59;;;30.90;47.97
36798;BME280;22748;8.426;99.512;2023-03-14T04:42:31;100703.63;;;30.95;47.86
36798;BME280;22748;8.426;99.512;2023-03-14T04:45:03;100696.09;;;31.04;47.94
36798;BME280;22748;8.426;99.512;2023-03-14T04:47:35;100696.47;;;31.08;48.15
36798;BME280;22748;8.426;99.512;2023-03-14T04:50:06;100690.25;;;31.07;47.45
36798;BME280;22748;8.426;99.512;2023-03-14T04:52:37;100690.47;;;31.06;47.46
36798;BME280;22748;8.426;99.512;2023-03-14T04:55:07;100684.19;;;31.12;46.97
36798;BME280;22748;8.426;99.512;2023-03-14T04:57:39;100677.53;;;31.14;46.61
36798;BME280;22748;8.426;99.512;2023-03-14T05:00:11;100663.97;;;31.21;45.87
36798;BME280;22748;8.426;99.512;2023-03-14T05:02:44;100660.22;;;31.22;46.92
36798;BME280;22748;8.426;99.512;2023-03-14T05:05:15;100649.06;;;31.19;45.97
36798;BME280;22748;8.426;99.512;2023-03-14T05:07:45;100656.47;;;31.23;46.86
36798;BME280;22748;8.426;99.512;2023-03-14T05:10:15;100652.28;;;31.27;46.27
36798;BME280;22748;8.426;99.512;2023-03-14T05:12:48;100643.59;;;31.25;46.20
36798;BME280;22748;8.426;99.512;2023-03-14T05:15:20;100637.94;;;31.27;46.62
36798;BME280;22748;8.426;99.512;2023-03-14T05:17:52;100633.06;;;31.35;46.24
36798;BME280;22748;8.426;99.512;2023-03-14T05:20:23;100626.78;;;31.42;46.34
36798;BME280;22748;8.426;99.512;2023-03-14T05:22:54;100621.09;;;31.50;46.34
36798;BME280;22748;8.426;99.512;2023-03-14T05:25:25;100615.41;;;31.58;47.12
36798;BME280;22748;8.426;99.512;2023-03-14T05:27:57;100610.22;;;31.56;46.74
36798;BME280;22748;8.426;99.512;2023-03-14T05:30:27;100602.94;;;31.57;46.89
36798;BME280;22748;8.426;99.512;2023-03-14T05:33:00;100597.09;;;31.60;46.66
36798;BME280;22748;8.426;99.512;2023-03-14T05:35:30;100590.41;;;31.63;47.50
36798;BME280;22748;8.426;99.512;2023-03-14T05:38:01;100584.22;;;31.62;46.74
36798;BME280;22748;8.426;99.512;2023-03-14T05:40:33;100577.63;;;31.58;47.09
36798;BME280;22748;8.426;99.512;2023-03-14T05:43:12;100572.56;;;31.62;46.85
36798;BME280;22748;8.426;99.512;2023-03-14T05:45:45;100568.53;;;31.52;46.32
36798;BME280;22748;8.426;99.512;2023-03-14T05:48:19;100561.84;;;31.55;46.80
36798;BME280;22748;8.426;99.512;2023-03-14T05:50:55;100555.28;;;31.51;46.98
36798;BME280;22748;8.426;99.512;2023-03-14T05:53:27;100560.94;;;31.61;46.94
36798;BME280;22748;8.426;99.512;2023-03-14T05:55:59;100541.72;;;31.69;47.12
36798;BME280;22748;8.426;99.512;2023-03-14T05:58:29;100540.22;;;31.73;46.22
36798;BME280;22748;8.426;99.512;2023-03-14T06:01:02;100541.25;;;31.72;46.24
36798;BME280;22748;8.426;99.512;2023-03-14T06:03:35;100528.34;;;31.74;45.76
36798;BME280;22748;8.426;99.512;2023-03-14T06:06:06;100532.56;;;31.70;45.66
36798;BME280;22748;8.426;99.512;2023-03-14T06:08:36;100530.47;;;31.72;45.38
36798;BME280;22748;8.426;99.512;2023-03-14T06:11:07;100522.13;;;31.74;45.17
36798;BME280;22748;8.426;99.512;2023-03-14T06:13:38;100521.31;;;31.73;45.51
36798;BME280;22748;8.426;99.512;2023-03-14T06:16:10;100502.09;;;31.82;45.83
36798;BME280;22748;8.426;99.512;2023-03-14T06:18:42;100508.19;;;31.89;46.15
36798;BME280;22748;8.426;99.512;2023-03-14T06:21:15;100505.28;;;31.90;46.21
36798;BME280;22748;8.426;99.512;2023-03-14T06:23:45;100495.28;;;31.91;45.55
36798;BME280;22748;8.426;99.512;2023-03-14T06:26:16;100483.19;;;31.93;45.93
36798;BME280;22748;8.426;99.512;2023-03-14T06:28:47;100480.25;;;31.95;45.83
36798;BME280;22748;8.426;99.512;2023-03-14T06:31:19;100481.09;;;31.95;45.31
36798;BME280;22748;8.426;99.512;2023-03-14T06:33:50;100475.31;;;31.92;45.34
36798;BME280;22748;8.426;99.512;2023-03-14T06:36:20;100461.59;;;31.93;45.05
36798;BME280;22748;8.426;99.512;2023-03-14T06:38:50;100467.72;;;32.01;45.46
36798;BME280;22748;8.426;99.512;2023-03-14T06:41:24;100464.44;;;31.98;45.39
36798;BME280;22748;8.426;99.512;2023-03-14T06:44:01;100458.53;;;31.90;45.99
36798;BME280;22748;8.426;99.512;2023-03-14T06:46:35;100460.78;;;31.93;45.63
36798;BME280;22748;8.426;99.512;2023-03-14T06:49:12;100456.31;;;31.98;46.03
36798;BME280;22748;8.426;99.512;2023-03-14T06:51:42;100447.16;;;32.11;45.16
36798;BME280;22748;8.426;99.512;2023-03-14T06:54:15;100438.81;;;32.25;44.92
36798;BME280;22748;8.426;99.512;2023-03-14T06:56:45;100438.38;;;32.28;44.94
36798;BME280;22748;8.426;99.512;2023-03-14T06:59:15;100437.28;;;32.29;44.15
36798;BME280;22748;8.426;99.512;2023-03-14T07:01:46;100435.78;;;32.21;44.07
36798;BME280;22748;8.426;99.512;2023-03-14T07:04:20;100428.84;;;32.25;44.39
36798;BME280;22748;8.426;99.512;2023-03-14T07:06:51;100428.25;;;32.23;44.42
36798;BME280;22748;8.426;99.512;2023-03-14T07:09:23;100417.69;;;32.22;44.83
36798;BME280;22748;8.426;99.512;2023-03-14T07:11:53;100414.13;;;32.33;44.85
36798;BME280;22748;8.426;99.512;2023-03-14T07:14:24;100406.72;;;32.40;44.46
36798;BME280;22748;8.426;99.512;2023-03-14T07:16:55;100405.31;;;32.37;44.73
36798;BME280;22748;8.426;99.512;2023-03-14T07:19:31;100412.69;;;32.42;44.74
36798;BME280;22748;8.426;99.512;2023-03-14T07:22:02;100409.41;;;32.40;43.43
36798;BME280;22748;8.426;99.512;2023-03-14T07:24:47;100413.09;;;32.22;42.58
36798;BME280;22748;8.426;99.512;2023-03-14T07:27:19;100402.50;;;32.21;43.82
36798;BME280;22748;8.426;99.512;2023-03-14T07:29:50;100408.16;;;32.31;44.28
36798;BME280;22748;8.426;99.512;2023-03-14T07:32:24;100398.88;;;32.38;44.30
36798;BME280;22748;8.426;99.512;2023-03-14T07:34:58;100392.38;;;32.51;44.28
36798;BME280;22748;8.426;99.512;2023-03-14T07:37:29;100395.69;;;32.53;44.40
36798;BME280;22748;8.426;99.512;2023-03-14T07:40:00;100392.25;;;32.58;43.34
36798;BME280;22748;8.426;99.512;2023-03-14T07:42:32;100387.44;;;32.60;43.47
36798;BME280;22748;8.426;99.512;2023-03-14T07:45:04;100381.09;;;32.54;43.76
36798;BME280;22748;8.426;99.512;2023-03-14T07:47:35;100376.28;;;32.56;43.97
36798;BME280;22748;8.426;99.512;2023-03-14T07:50:10;100366.03;;;32.58;43.32
36798;BME280;22748;8.426;99.512;2023-03-14T07:52:41;100371.44;;;32.58;43.74
36798;BME280;22748;8.426;99.512;2023-03-14T07:55:14;100368.41;;;32.55;43.63
36798;BME280;22748;8.426;99.512;2023-03-14T07:57:46;100356.19;;;32.52;43.65
36798;BME280;22748;8.426;99.512;2023-03-14T08:00:17;100353.56;;;32.57;43.68
36798;BME280;22748;8.426;99.512;2023-03-14T08:02:48;100357.06;;;32.70;43.65
36798;BME280;22748;8.426;99.512;2023-03-14T08:05:23;100351.16;;;32.73;43.88
36798;BME280;22748;8.426;99.512;2023-03-14T08:07:53;100345.50;;;32.74;43.64
36798;BME280;22748;8.426;99.512;2023-03-14T08:10:24;100359.38;;;32.78;43.33
36798;BME280;22748;8.426;99.512;2023-03-14T08:12:56;100349.88;;;32.75;43.12
36798;BME280;22748;8.426;99.512;2023-03-14T08:15:27;100347.59;;;32.84;43.13
36798;BME280;22748;8.426;99.512;2023-03-14T08:17:58;100349.38;;;32.78;43.78
36798;BME280;22748;8.426;99.512;2023-03-14T08:20:31;100345.56;;;32.63;44.19
36798;BME280;22748;8.426;99.512;2023-03-14T08:23:07;100339.22;;;32.69;43.88
36798;BME280;22748;8.426;99.512;2023-03-14T08:25:38;100338.88;;;32.65;43.57
36798;BME280;22748;8.426;99.512;2023-03-14T08:28:08;100339.66;;;32.66;43.69
36798;BME280;22748;8.426;99.512;2023-03-14T08:30:39;100337.56;;;32.68;43.70
36798;BME280;22748;8.426;99.512;2023-03-14T08:33:11;100335.56;;;32.63;44.03
36798;BME280;22748;8.426;99.512;2023-03-14T08:35:44;100334.25;;;32.66;43.87
36798;BME280;22748;8.426;99.512;2023-03-14T08:38:16;100338.03;;;32.65;43.76
36798;BME280;22748;8.426;99.512;2023-03-14T08:40:46;100330.97;;;32.64;44.07
36798;BME280;22748;8.426;99.512;2023-03-14T08:43:17;100332.16;;;32.68;44.06
36798;BME280;22748;8.426;99.512;2023-03-14T08:45:48;100335.22;;;32.59;43.97
36798;BME280;22748;8.426;99.512;2023-03-14T08:48:19;100325.16;;;32.55;43.83
36798;BME280;22748;8.426;99.512;2023-03-14T08:50:51;100329.34;;;32.63;44.49
36798;BME280;22748;8.426;99.512;2023-03-14T08:53:24;100340.16;;;32.63;44.03
36798;BME280;22748;8.426;99.512;2023-03-14T08:55:54;100329.25;;;32.57;43.93
36798;BME280;22748;8.426;99.512;2023-03-14T08:58:27;100331.94;;;32.57;43.83
36798;BME280;22748;8.426;99.512;2023-03-14T09:00:57;100335.22;;;32.59;44.08
36798;BME280;22748;8.426;99.512;2023-03-14T09:03:29;100328.31;;;32.52;43.88
36798;BME280;22748;8.426;99.512;2023-03-14T09:06:06;100335.97;;;32.43;44.09
36798;BME280;22748;8.426;99.512;2023-03-14T09:08:37;100329.63;;;32.49;43.84
36798;BME280;22748;8.426;99.512;2023-03-14T09:11:09;100335.72;;;32.56;44.12
36798;BME280;22748;8.426;99.512;2023-03-14T09:13:40;100334.06;;;32.55;43.86
36798;BME280;22748;8.426;99.512;2023-03-14T09:16:11;100338.50;;;32.62;43.97
36798;BME280;22748;8.426;99.512;2023-03-14T09:18:44;100334.06;;;32.55;44.15
36798;BME280;22748;8.426;99.512;2023-03-14T09:21:17;100344.31;;;32.53;44.23
36798;BME280;22748;8.426;99.512;2023-03-14T09:23:49;100341.63;;;32.53;44.60
36798;BME280;22748;8.426;99.512;2023-03-14T09:26:20;100345.56;;;32.63;44.29
36798;BME280;22748;8.426;99.512;2023-03-14T09:28:51;100345.09;;;32.66;43.77
36798;BME280;22748;8.426;99.512;2023-03-14T09:31:21;100343.47;;;32.65;44.02
36798;BME280;22748;8.426;99.512;2023-03-14T09:33:52;100343.47;;;32.65;44.02
36798;BME280;22748;8.426;99.512;2023-03-14T09:36:29;100347.19;;;32.64;44.17
36798;BME280;22748;8.426;99.512;2023-03-14T09:39:01;100353.69;;;32.63;43.69
36798;BME280;22748;8.426;99.512;2023-03-14T09:41:33;100349.91;;;32.64;43.97
36798;BME280;22748;8.426;99.512;2023-03-14T09:44:06;100355.31;;;32.64;44.21
36798;BME280;22748;8.426;99.512;2023-03-14T09:46:43;100353.78;;;32.68;44.32
36798;BME280;22748;8.426;99.512;2023-03-14T09:49:21;100358.50;;;32.61;44.76
36798;BME280;22748;8.426;99.512;2023-03-14T09:51:58;100359.69;;;32.65;44.73
36798;BME280;22748;8.426;99.512;2023-03-14T09:54:35;100365.91;;;32.65;44.78
36798;BME280;22748;8.426;99.512;2023-03-14T09:57:11;100362.97;;;32.67;44.79
36798;BME280;22748;8.426;99.512;2023-03-14T09:59:45;100369.31;;;32.61;44.75
36798;BME280;22748;8.426;99.512;2023-03-14T10:02:17;100371.22;;;32.48;45.09
36798;BME280;22748;8.426;99.512;2023-03-14T10:04:50;100370.63;;;32.46;45.04
36798;BME280;22748;8.426;99.512;2023-03-14T10:07:28;100373.69;;;32.50;45.13
36798;BME280;22748;8.426;99.512;2023-03-14T10:10:00;100371.38;;;32.53;45.46
36798;BME280;22748;8.426;99.512;2023-03-14T10:12:35;100375.09;;;32.52;45.19
36798;BME280;22748;8.426;99.512;2023-03-14T10:15:08;100375.19;;;32.57;45.08
36798;BME280;22748;8.426;99.512;2023-03-14T10:17:42;100386.13;;;32.51;45.58
36798;BME280;22748;8.426;99.512;2023-03-14T10:20:29;100392.84;;;32.48;45.40
36798;BME280;22748;8.426;99.512;2023-03-14T10:23:05;100392.63;;;32.38;45.52
36798;BME280;22748;8.426;99.512;2023-03-14T10:25:39;100405.22;;;32.32;45.23
36798;BME280;22748;8.426;99.512;2023-03-14T10:28:24;100403.09;;;32.34;45.45
36798;BME280;22748;8.426;99.512;2023-03-14T10:30:56;100405.81;;;32.23;45.71
36798;BME280;22748;8.426;99.512;2023-03-14T10:33:29;100397.59;;;32.17;45.91
36798;BME280;22748;8.426;99.512;2023-03-14T10:36:04;100407.22;;;32.13;46.01
36798;BME280;22748;8.426;99.512;2023-03-14T10:38:37;100409.34;;;32.11;46.13
36798;BME280;22748;8.426;99.512;2023-03-14T10:41:17;100409.84;;;32.08;46.11
36798;BME280;22748;8.426;99.512;2023-03-14T10:43:50;100407.72;;;32.10;45.96
36798;BME280;22748;8.426;99.512;2023-03-14T10:46:24;100413.81;;;32.17;46.36
36798;BME280;22748;8.426;99.512;2023-03-14T10:48:57;100414.28;;;32.14;46.40
36798;BME280;22748;8.426;99.512;2023-03-14T10:51:30;100402.41;;;32.15;46.70
36798;BME280;22748;8.426;99.512;2023-03-14T10:54:09;100409.22;;;32.18;45.98
36798;BME280;22748;8.426;99.512;2023-03-14T10:56:42;100416.97;;;32.26;45.98
36798;BME280;22748;8.426;99.512;2023-03-14T10:59:14;100421.44;;;32.32;46.48
36798;BME280;22748;8.426;99.512;2023-03-14T11:01:49;100419.81;;;32.20;46.15
36798;BME280;22748;8.426;99.512;2023-03-14T11:04:35;100419.47;;;32.04;46.58
36798;BME280;22748;8.426;99.512;2023-03-14T11:07:12;100426.38;;;32.00;46.53
36798;BME280;22748;8.426;99.512;2023-03-14T11:09:52;100423.66;;;31.88;47.08
36798;BME280;22748;8.426;99.512;2023-03-14T11:12:36;100433.75;;;31.93;46.67
36798;BME280;22748;8.426;99.512;2023-03-14T11:15:16;100433.28;;;31.96;46.38
36798;BME280;22748;8.426;99.512;2023-03-14T11:17:59;100434.34;;;31.95;46.59
36798;BME280;22748;8.426;99.512;2023-03-14T11:20:41;100444.09;;;31.96;46.36
36798;BME280;22748;8.426;99.512;2023-03-14T11:23:16;100445.53;;;31.98;46.44
36798;BME280;22748;8.426;99.512;2023-03-14T11:25:56;100448.09;;;32.05;46.30
36798;BME280;22748;8.426;99.512;2023-03-14T11:28:33;100449.75;;;32.06;46.53
36798;BME280;22748;8.426;99.512;2023-03-14T11:31:13;100454.69;;;32.09;46.38
36798;BME280;22748;8.426;99.512;2023-03-14T11:33:50;100462.78;;;31.97;46.77
36798;BME280;22748;8.426;99.512;2023-03-14T11:36:29;100467.22;;;31.92;46.79
36798;BME280;22748;8.426;99.512;2023-03-14T11:39:02;100474.03;;;31.94;46.90
36798;BME280;22748;8.426;99.512;2023-03-14T11:41:38;100479.81;;;31.98;47.08
36798;BME280;22748;8.426;99.512;2023-03-14T11:44:16;100481.91;;;31.96;47.11
36798;BME280;22748;8.426;99.512;2023-03-14T11:46:52;100484.81;;;31.83;47.36
36798;BME280;22748;8.426;99.512;2023-03-14T11:49:31;100491.28;;;31.82;47.58
36798;BME280;22748;8.426;99.512;2023-03-14T11:52:10;100490.22;;;31.83;47.42
36798;BME280;22748;8.426;99.512;2023-03-14T11:54:53;100494.00;;;31.82;47.21
36798;BME280;22748;8.426;99.512;2023-03-14T11:57:28;100504.09;;;31.86;47.22
36798;BME280;22748;8.426;99.512;2023-03-14T12:00:02;100507.50;;;31.82;47.59
36798;BME280;22748;8.426;99.512;2023-03-14T12:02:44;100510.81;;;31.53;48.51
36798;BME280;22748;8.426;99.512;2023-03-14T12:05:39;100511.16;;;31.57;48.33
36798;BME280;22748;8.426;99.512;2023-03-14T12:08:38;100516.13;;;31.42;48.27
36798;BME280;22748;8.426;99.512;2023-03-14T12:14:14;100522.00;;;31.39;49.06
36798;BME280;22748;8.426;99.512;2023-03-14T12:16:49;100520.81;;;31.34;49.13
36798;BME280;22748;8.426;99.512;2023-03-14T12:19:34;100530.03;;;31.27;48.98
36798;BME280;22748;8.426;99.512;2023-03-14T12:25:06;100539.41;;;31.43;48.90
36798;BME280;22748;8.426;99.512;2023-03-14T12:27:48;100554.69;;;31.30;49.34
36798;BME280;22748;8.426;99.512;2023-03-14T12:30:37;100553.34;;;31.03;49.58
36798;BME280;22748;8.426;99.512;2023-03-14T12:33:29;100559.19;;;31.18;49.58
36798;BME280;22748;8.426;99.512;2023-03-14T12:36:15;100561.72;;;31.31;49.49
36798;BME280;22748;8.426;99.512;2023-03-14T12:39:00;100560.38;;;31.41;49.15
36798;BME280;22748;8.426;99.512;2023-03-14T12:41:38;100554.09;;;31.47;48.98
36798;BME280;22748;8.426;99.512;2023-03-14T12:44:47;100567.00;;;31.45;48.95
36798;BME280;22748;8.426;99.512;2023-03-14T12:47:51;100570.66;;;31.50;49.33
36798;BME280;22748;8.426;99.512;2023-03-14T12:50:30;100577.22;;;31.54;49.10
36798;BME280;22748;8.426;99.512;2023-03-14T12:56:11;100595.63;;;31.27;49.56
36798;BME280;22748;8.426;99.512;2023-03-14T13:01:48;100604.16;;;31.24;49.70
36798;BME280;22748;8.426;99.512;2023-03-14T13:04:33;100606.56;;;31.32;49.92
36798;BME280;22748;8.426;99.512;2023-03-14T13:07:04;100618.16;;;31.33;49.87
36798;BME280;22748;8.426;99.512;2023-03-14T13:12:43;100627.25;;;31.39;50.06
36798;BME280;22748;8.426;99.512;2023-03-14T13:15:20;100637.78;;;31.40;50.08
36798;BME280;22748;8.426;99.512;2023-03-14T13:17:53;100645.03;;;31.46;50.01
36798;BME280;22748;8.426;99.512;2023-03-14T13:20:30;100639.63;;;31.46;49.75
36798;BME280;22748;8.426;99.512;2023-03-14T13:23:01;100650.66;;;31.45;50.00
36798;BME280;22748;8.426;99.512;2023-03-14T13:25:32;100649.22;;;31.42;49.65
36798;BME280;22748;8.426;99.512;2023-03-14T13:28:05;100653.75;;;31.42;50.24
36798;BME280;22748;8.426;99.512;2023-03-14T13:30:41;100665.47;;;31.35;50.29
36798;BME280;22748;8.426;99.512;2023-03-14T13:33:16;100662.16;;;31.33;50.17
36798;BME280;22748;8.426;99.512;2023-03-14T13:35:50;100663.81;;;31.34;49.89
36798;BME280;22748;8.426;99.512;2023-03-14T13:38:27;100665.47;;;31.35;50.03
36798;BME280;22748;8.426;99.512;2023-03-14T13:41:06;100665.53;;;31.29;50.19
36798;BME280;22748;8.426;99.512;2023-03-14T13:43:41;100671.53;;;31.31;50.51